sensor_id;sensor_type;location;lat;lon;timestamp;P1;durP1;ratioP1;P2;durP2;ratioP2
72132;SDS011;60008;50.826;6.896;2022-07-23T00:00:08;15.85;;;9.18;;
72132;SDS011;60008;50.826;6.896;2022-07-23T00:02:36;15.47;;;9.00;;
72132;SDS011;60008;50.826;6.896;2022-07-23T00:05:02;17.05;;;9.27;;
72132;SDS011;60008;50.826;6.896;2022-07-23T00:07:29;20.30;;;9.07;;
72132;SDS011;60008;50.826;6.896;2022-07-23T00:09:56;17.75;;;9.43;;
72132;SDS011;60008;50.826;6.896;2022-07-23T00:12:22;20.50;;;10.10;;
72132;SDS011;60008;50.826;6.896;2022-07-23T00:14:49;18.27;;;10.07;;
72132;SDS011;60008;50.826;6.896;2022-07-23T00:17:15;19.92;;;10.20;;
72132;SDS011;60008;50.826;6.896;2022-07-23T00:19:42;17.85;;;10.48;;
72132;SDS011;60008;50.826;6.896;2022-07-23T00:22:09;19.77;;;10.90;;
72132;SDS011;60008;50.826;6.896;2022-07-23T00:24:35;20.77;;;10.35;;
72132;SDS011;60008;50.826;6.896;2022-07-23T00:27:02;20.53;;;11.57;;
72132;SDS011;60008;50.826;6.896;2022-07-23T00:29:28;21.25;;;10.63;;
72132;SDS011;60008;50.826;6.896;2022-07-23T00:31:55;17.92;;;10.20;;
72132;SDS011;60008;50.826;6.896;2022-07-23T00:34:22;18.80;;;9.63;;
72132;SDS011;60008;50.826;6.896;2022-07-23T00:36:49;17.20;;;9.48;;
72132;SDS011;60008;50.826;6.896;2022-07-23T00:39:15;17.03;;;10.13;;
72132;SDS011;60008;50.826;6.896;2022-07-23T00:41:42;17.88;;;9.70;;
72132;SDS011;60008;50.826;6.896;2022-07-23T00:44:18;18.77;;;9.68;;
72132;SDS011;60008;50.826;6.896;2022-07-23T00:46:51;21.73;;;10.73;;
72132;SDS011;60008;50.826;6.896;2022-07-23T00:49:20;20.02;;;10.18;;
72132;SDS011;60008;50.826;6.896;2022-07-23T00:51:48;17.23;;;9.20;;
72132;SDS011;60008;50.826;6.896;2022-07-23T00:54:16;17.73;;;9.88;;
72132;SDS011;60008;50.826;6.896;2022-07-23T00:56:44;19.35;;;10.40;;
72132;SDS011;60008;50.826;6.896;2022-07-23T00:59:12;18.92;;;9.82;;
72132;SDS011;60008;50.826;6.896;2022-07-23T01:01:40;18.67;;;10.02;;
72132;SDS011;60008;50.826;6.896;2022-07-23T01:04:07;17.67;;;9.77;;
72132;SDS011;60008;50.826;6.896;2022-07-23T01:06:34;17.98;;;9.13;;
72132;SDS011;60008;50.826;6.896;2022-07-23T01:09:02;20.38;;;9.38;;
72132;SDS011;60008;50.826;6.896;2022-07-23T01:11:34;17.95;;;9.45;;
72132;SDS011;60008;50.826;6.896;2022-07-23T01:14:08;19.88;;;8.93;;
72132;SDS011;60008;50.826;6.896;2022-07-23T01:16:39;16.07;;;8.70;;
72132;SDS011;60008;50.826;6.896;2022-07-23T01:19:08;15.70;;;8.55;;
72132;SDS011;60008;50.826;6.896;2022-07-23T01:21:36;15.25;;;8.13;;
72132;SDS011;60008;50.826;6.896;2022-07-23T01:24:07;15.82;;;7.30;;
72132;SDS011;60008;50.826;6.896;2022-07-23T01:26:36;14.90;;;7.15;;
72132;SDS011;60008;50.826;6.896;2022-07-23T01:29:04;15.37;;;7.13;;
72132;SDS011;60008;50.826;6.896;2022-07-23T01:31:32;13.63;;;7.30;;
72132;SDS011;60008;50.826;6.896;2022-07-23T01:33:58;13.60;;;6.53;;
72132;SDS011;60008;50.826;6.896;2022-07-23T01:36:25;12.73;;;6.38;;
72132;SDS011;60008;50.826;6.896;2022-07-23T01:38:52;10.65;;;5.70;;
72132;SDS011;60008;50.826;6.896;2022-07-23T01:41:19;11.47;;;5.60;;
72132;SDS011;60008;50.826;6.896;2022-07-23T01:43:45;11.55;;;5.30;;
72132;SDS011;60008;50.826;6.896;2022-07-23T01:46:12;9.40;;;5.13;;
72132;SDS011;60008;50.826;6.896;2022-07-23T01:48:39;11.98;;;5.78;;
72132;SDS011;60008;50.826;6.896;2022-07-23T01:51:05;9.85;;;5.53;;
72132;SDS011;60008;50.826;6.896;2022-07-23T01:53:32;11.30;;;5.70;;
72132;SDS011;60008;50.826;6.896;2022-07-23T01:55:59;12.40;;;6.32;;
72132;SDS011;60008;50.826;6.896;2022-07-23T01:58:26;14.40;;;6.90;;
72132;SDS011;60008;50.826;6.896;2022-07-23T02:00:54;13.45;;;7.13;;
72132;SDS011;60008;50.826;6.896;2022-07-23T02:03:21;13.82;;;7.05;;
72132;SDS011;60008;50.826;6.896;2022-07-23T02:05:48;18.67;;;7.90;;
72132;SDS011;60008;50.826;6.896;2022-07-23T02:08:15;13.20;;;7.22;;
72132;SDS011;60008;50.826;6.896;2022-07-23T02:10:42;13.13;;;7.60;;
72132;SDS011;60008;50.826;6.896;2022-07-23T02:13:09;13.55;;;7.28;;
72132;SDS011;60008;50.826;6.896;2022-07-23T02:15:38;12.63;;;7.55;;
72132;SDS011;60008;50.826;6.896;2022-07-23T02:18:04;15.40;;;7.73;;
72132;SDS011;60008;50.826;6.896;2022-07-23T02:20:31;14.85;;;7.82;;
72132;SDS011;60008;50.826;6.896;2022-07-23T02:22:57;15.80;;;7.68;;
72132;SDS011;60008;50.826;6.896;2022-07-23T02:25:24;15.38;;;7.47;;
72132;SDS011;60008;50.826;6.896;2022-07-23T02:27:51;13.20;;;7.47;;
72132;SDS011;60008;50.826;6.896;2022-07-23T02:30:17;13.33;;;7.43;;
72132;SDS011;60008;50.826;6.896;2022-07-23T02:32:44;14.02;;;8.23;;
72132;SDS011;60008;50.826;6.896;2022-07-23T02:35:10;17.63;;;8.00;;
72132;SDS011;60008;50.826;6.896;2022-07-23T02:37:37;14.80;;;8.45;;
72132;SDS011;60008;50.826;6.896;2022-07-23T02:40:03;13.05;;;7.78;;
72132;SDS011;60008;50.826;6.896;2022-07-23T02:42:30;15.67;;;8.40;;
72132;SDS011;60008;50.826;6.896;2022-07-23T02:44:57;15.43;;;8.15;;
72132;SDS011;60008;50.826;6.896;2022-07-23T02:47:23;14.43;;;8.18;;
72132;SDS011;60008;50.826;6.896;2022-07-23T02:49:50;16.45;;;8.48;;
72132;SDS011;60008;50.826;6.896;2022-07-23T02:52:18;15.48;;;8.20;;
72132;SDS011;60008;50.826;6.896;2022-07-23T02:54:44;15.63;;;8.00;;
72132;SDS011;60008;50.826;6.896;2022-07-23T02:57:11;17.65;;;8.30;;
72132;SDS011;60008;50.826;6.896;2022-07-23T02:59:37;15.80;;;8.88;;
72132;SDS011;60008;50.826;6.896;2022-07-23T03:02:04;15.02;;;8.73;;
72132;SDS011;60008;50.826;6.896;2022-07-23T03:04:34;17.10;;;8.10;;
72132;SDS011;60008;50.826;6.896;2022-07-23T03:07:00;15.20;;;7.93;;
72132;SDS011;60008;50.826;6.896;2022-07-23T03:09:27;19.08;;;8.45;;
72132;SDS011;60008;50.826;6.896;2022-07-23T03:11:53;16.23;;;8.48;;
72132;SDS011;60008;50.826;6.896;2022-07-23T03:14:20;17.98;;;8.77;;
72132;SDS011;60008;50.826;6.896;2022-07-23T03:16:47;13.52;;;8.23;;
72132;SDS011;60008;50.826;6.896;2022-07-23T03:19:15;16.43;;;7.57;;
72132;SDS011;60008;50.826;6.896;2022-07-23T03:21:42;14.27;;;8.15;;
72132;SDS011;60008;50.826;6.896;2022-07-23T03:24:09;16.58;;;8.93;;
72132;SDS011;60008;50.826;6.896;2022-07-23T03:26:36;15.25;;;8.07;;
72132;SDS011;60008;50.826;6.896;2022-07-23T03:29:03;15.02;;;8.88;;
72132;SDS011;60008;50.826;6.896;2022-07-23T03:31:30;16.43;;;9.07;;
72132;SDS011;60008;50.826;6.896;2022-07-23T03:33:57;17.33;;;9.77;;
72132;SDS011;60008;50.826;6.896;2022-07-23T03:36:24;19.25;;;9.50;;
72132;SDS011;60008;50.826;6.896;2022-07-23T03:38:51;21.85;;;10.10;;
72132;SDS011;60008;50.826;6.896;2022-07-23T03:41:21;18.92;;;9.73;;
72132;SDS011;60008;50.826;6.896;2022-07-23T03:43:47;21.33;;;10.90;;
72132;SDS011;60008;50.826;6.896;2022-07-23T03:46:14;19.17;;;10.07;;
72132;SDS011;60008;50.826;6.896;2022-07-23T03:48:41;22.77;;;10.82;;
72132;SDS011;60008;50.826;6.896;2022-07-23T03:51:07;19.13;;;10.52;;
72132;SDS011;60008;50.826;6.896;2022-07-23T03:53:34;19.77;;;10.50;;
72132;SDS011;60008;50.826;6.896;2022-07-23T03:56:00;24.70;;;11.33;;
72132;SDS011;60008;50.826;6.896;2022-07-23T03:58:27;23.25;;;11.98;;
72132;SDS011;60008;50.826;6.896;2022-07-23T04:00:54;22.42;;;10.85;;
72132;SDS011;60008;50.826;6.896;2022-07-23T04:03:20;21.70;;;11.40;;
72132;SDS011;60008;50.826;6.896;2022-07-23T04:05:47;20.48;;;10.77;;
72132;SDS011;60008;50.826;6.896;2022-07-23T04:08:13;21.03;;;11.20;;
72132;SDS011;60008;50.826;6.896;2022-07-23T04:10:40;20.70;;;10.95;;
72132;SDS011;60008;50.826;6.896;2022-07-23T04:13:06;22.98;;;10.80;;
72132;SDS011;60008;50.826;6.896;2022-07-23T04:15:33;22.77;;;12.23;;
72132;SDS011;60008;50.826;6.896;2022-07-23T04:17:59;22.15;;;11.38;;
72132;SDS011;60008;50.826;6.896;2022-07-23T04:20:26;24.13;;;12.60;;
72132;SDS011;60008;50.826;6.896;2022-07-23T04:22:52;23.73;;;11.18;;
72132;SDS011;60008;50.826;6.896;2022-07-23T04:25:20;22.30;;;11.93;;
72132;SDS011;60008;50.826;6.896;2022-07-23T04:27:47;27.33;;;12.50;;
72132;SDS011;60008;50.826;6.896;2022-07-23T04:30:13;23.50;;;12.38;;
72132;SDS011;60008;50.826;6.896;2022-07-23T04:32:40;25.90;;;11.93;;
72132;SDS011;60008;50.826;6.896;2022-07-23T04:35:07;23.60;;;12.73;;
72132;SDS011;60008;50.826;6.896;2022-07-23T04:37:34;28.42;;;12.45;;
72132;SDS011;60008;50.826;6.896;2022-07-23T04:40:00;21.67;;;11.48;;
72132;SDS011;60008;50.826;6.896;2022-07-23T04:42:27;30.80;;;12.40;;
72132;SDS011;60008;50.826;6.896;2022-07-23T04:44:53;28.20;;;12.73;;
72132;SDS011;60008;50.826;6.896;2022-07-23T04:47:20;24.35;;;12.85;;
72132;SDS011;60008;50.826;6.896;2022-07-23T04:49:48;27.30;;;13.10;;
72132;SDS011;60008;50.826;6.896;2022-07-23T04:52:14;23.02;;;11.80;;
72132;SDS011;60008;50.826;6.896;2022-07-23T04:54:41;23.25;;;12.48;;
72132;SDS011;60008;50.826;6.896;2022-07-23T04:57:08;21.17;;;11.40;;
72132;SDS011;60008;50.826;6.896;2022-07-23T04:59:34;23.75;;;11.27;;
72132;SDS011;60008;50.826;6.896;2022-07-23T05:02:01;21.08;;;10.90;;
72132;SDS011;60008;50.826;6.896;2022-07-23T05:04:28;20.95;;;11.00;;
72132;SDS011;60008;50.826;6.896;2022-07-23T05:06:54;24.35;;;11.80;;
72132;SDS011;60008;50.826;6.896;2022-07-23T05:09:21;21.00;;;11.53;;
72132;SDS011;60008;50.826;6.896;2022-07-23T05:11:47;25.05;;;11.70;;
72132;SDS011;60008;50.826;6.896;2022-07-23T05:14:14;25.92;;;11.52;;
72132;SDS011;60008;50.826;6.896;2022-07-23T05:16:43;25.63;;;12.75;;
72132;SDS011;60008;50.826;6.896;2022-07-23T05:19:10;24.08;;;12.85;;
72132;SDS011;60008;50.826;6.896;2022-07-23T05:21:36;26.10;;;13.30;;
72132;SDS011;60008;50.826;6.896;2022-07-23T05:24:03;25.95;;;13.27;;
72132;SDS011;60008;50.826;6.896;2022-07-23T05:26:29;31.02;;;14.27;;
72132;SDS011;60008;50.826;6.896;2022-07-23T05:28:56;27.83;;;13.93;;
72132;SDS011;60008;50.826;6.896;2022-07-23T05:31:23;28.55;;;13.52;;
72132;SDS011;60008;50.826;6.896;2022-07-23T05:33:50;31.77;;;14.40;;
72132;SDS011;60008;50.826;6.896;2022-07-23T05:36:16;30.42;;;14.50;;
72132;SDS011;60008;50.826;6.896;2022-07-23T05:38:43;28.90;;;14.50;;
72132;SDS011;60008;50.826;6.896;2022-07-23T05:41:09;27.17;;;12.82;;
72132;SDS011;60008;50.826;6.896;2022-07-23T05:43:36;28.05;;;14.70;;
72132;SDS011;60008;50.826;6.896;2022-07-23T05:46:02;34.10;;;15.33;;
72132;SDS011;60008;50.826;6.896;2022-07-23T05:48:29;31.73;;;14.95;;
72132;SDS011;60008;50.826;6.896;2022-07-23T05:50:56;29.35;;;14.57;;
72132;SDS011;60008;50.826;6.896;2022-07-23T05:53:22;29.20;;;14.98;;
72132;SDS011;60008;50.826;6.896;2022-07-23T05:55:49;29.70;;;15.13;;
72132;SDS011;60008;50.826;6.896;2022-07-23T05:58:15;30.07;;;15.27;;
72132;SDS011;60008;50.826;6.896;2022-07-23T06:00:42;31.52;;;15.23;;
72132;SDS011;60008;50.826;6.896;2022-07-23T06:03:08;33.10;;;15.25;;
72132;SDS011;60008;50.826;6.896;2022-07-23T06:05:36;28.10;;;14.80;;
72132;SDS011;60008;50.826;6.896;2022-07-23T06:08:02;31.70;;;15.40;;
72132;SDS011;60008;50.826;6.896;2022-07-23T06:10:29;29.40;;;14.40;;
72132;SDS011;60008;50.826;6.896;2022-07-23T06:12:56;26.27;;;13.05;;
72132;SDS011;60008;50.826;6.896;2022-07-23T06:15:28;27.38;;;13.07;;
72132;SDS011;60008;50.826;6.896;2022-07-23T06:17:55;27.85;;;14.13;;
72132;SDS011;60008;50.826;6.896;2022-07-23T06:20:21;24.88;;;13.13;;
72132;SDS011;60008;50.826;6.896;2022-07-23T06:22:48;26.67;;;12.40;;
72132;SDS011;60008;50.826;6.896;2022-07-23T06:25:15;24.95;;;12.93;;
72132;SDS011;60008;50.826;6.896;2022-07-23T06:27:45;30.15;;;13.90;;
72132;SDS011;60008;50.826;6.896;2022-07-23T06:30:12;30.58;;;14.10;;
72132;SDS011;60008;50.826;6.896;2022-07-23T06:32:42;30.52;;;13.50;;
72132;SDS011;60008;50.826;6.896;2022-07-23T06:35:10;28.60;;;13.13;;
72132;SDS011;60008;50.826;6.896;2022-07-23T06:37:36;26.77;;;12.15;;
72132;SDS011;60008;50.826;6.896;2022-07-23T06:40:03;24.90;;;10.98;;
72132;SDS011;60008;50.826;6.896;2022-07-23T06:42:31;20.95;;;9.27;;
72132;SDS011;60008;50.826;6.896;2022-07-23T06:44:58;23.67;;;10.18;;
72132;SDS011;60008;50.826;6.896;2022-07-23T06:47:24;19.93;;;9.70;;
72132;SDS011;60008;50.826;6.896;2022-07-23T06:49:51;19.40;;;9.23;;
72132;SDS011;60008;50.826;6.896;2022-07-23T06:52:18;19.25;;;9.55;;
72132;SDS011;60008;50.826;6.896;2022-07-23T06:54:44;21.98;;;10.80;;
72132;SDS011;60008;50.826;6.896;2022-07-23T06:57:11;22.58;;;10.52;;
72132;SDS011;60008;50.826;6.896;2022-07-23T06:59:37;23.63;;;10.67;;
72132;SDS011;60008;50.826;6.896;2022-07-23T07:02:07;25.80;;;12.95;;
72132;SDS011;60008;50.826;6.896;2022-07-23T07:04:34;19.05;;;10.50;;
72132;SDS011;60008;50.826;6.896;2022-07-23T07:07:01;25.30;;;11.02;;
72132;SDS011;60008;50.826;6.896;2022-07-23T07:09:28;21.15;;;10.95;;
72132;SDS011;60008;50.826;6.896;2022-07-23T07:11:54;20.53;;;10.30;;
72132;SDS011;60008;50.826;6.896;2022-07-23T07:14:21;22.75;;;10.32;;
72132;SDS011;60008;50.826;6.896;2022-07-23T07:16:48;20.92;;;10.63;;
72132;SDS011;60008;50.826;6.896;2022-07-23T07:19:14;24.27;;;10.80;;
72132;SDS011;60008;50.826;6.896;2022-07-23T07:21:41;20.00;;;10.13;;
72132;SDS011;60008;50.826;6.896;2022-07-23T07:24:07;26.40;;;10.90;;
72132;SDS011;60008;50.826;6.896;2022-07-23T07:26:34;19.42;;;10.85;;
72132;SDS011;60008;50.826;6.896;2022-07-23T07:29:01;19.63;;;9.80;;
72132;SDS011;60008;50.826;6.896;2022-07-23T07:31:28;19.35;;;10.13;;
72132;SDS011;60008;50.826;6.896;2022-07-23T07:33:55;20.98;;;10.38;;
72132;SDS011;60008;50.826;6.896;2022-07-23T07:36:23;18.23;;;10.43;;
72132;SDS011;60008;50.826;6.896;2022-07-23T07:38:50;22.02;;;11.02;;
72132;SDS011;60008;50.826;6.896;2022-07-23T07:41:16;19.48;;;10.35;;
72132;SDS011;60008;50.826;6.896;2022-07-23T07:43:49;19.60;;;10.07;;
72132;SDS011;60008;50.826;6.896;2022-07-23T07:46:16;20.30;;;10.18;;
72132;SDS011;60008;50.826;6.896;2022-07-23T07:48:43;19.13;;;9.60;;
72132;SDS011;60008;50.826;6.896;2022-07-23T07:51:10;22.98;;;11.35;;
72132;SDS011;60008;50.826;6.896;2022-07-23T07:53:37;18.65;;;10.48;;
72132;SDS011;60008;50.826;6.896;2022-07-23T07:56:03;24.25;;;10.02;;
72132;SDS011;60008;50.826;6.896;2022-07-23T07:58:30;19.05;;;10.55;;
72132;SDS011;60008;50.826;6.896;2022-07-23T08:00:57;20.33;;;11.20;;
72132;SDS011;60008;50.826;6.896;2022-07-23T08:03:24;24.10;;;11.30;;
72132;SDS011;60008;50.826;6.896;2022-07-23T08:05:51;23.25;;;10.75;;
72132;SDS011;60008;50.826;6.896;2022-07-23T08:08:17;18.08;;;10.10;;
72132;SDS011;60008;50.826;6.896;2022-07-23T08:10:44;17.42;;;9.40;;
72132;SDS011;60008;50.826;6.896;2022-07-23T08:13:14;19.10;;;9.73;;
72132;SDS011;60008;50.826;6.896;2022-07-23T08:15:42;18.65;;;10.02;;
72132;SDS011;60008;50.826;6.896;2022-07-23T08:18:09;17.92;;;10.88;;
72132;SDS011;60008;50.826;6.896;2022-07-23T08:20:36;18.63;;;11.30;;
72132;SDS011;60008;50.826;6.896;2022-07-23T08:23:03;19.88;;;11.20;;
72132;SDS011;60008;50.826;6.896;2022-07-23T08:25:32;18.80;;;11.17;;
72132;SDS011;60008;50.826;6.896;2022-07-23T08:28:10;21.42;;;11.25;;
72132;SDS011;60008;50.826;6.896;2022-07-23T08:30:38;24.65;;;11.40;;
72132;SDS011;60008;50.826;6.896;2022-07-23T08:33:08;18.98;;;10.90;;
72132;SDS011;60008;50.826;6.896;2022-07-23T08:35:59;21.88;;;10.68;;
72132;SDS011;60008;50.826;6.896;2022-07-23T08:38:28;20.33;;;11.23;;
72132;SDS011;60008;50.826;6.896;2022-07-23T08:40:55;22.88;;;13.20;;
72132;SDS011;60008;50.826;6.896;2022-07-23T08:43:29;16.20;;;9.25;;
72132;SDS011;60008;50.826;6.896;2022-07-23T08:45:58;15.32;;;9.30;;
72132;SDS011;60008;50.826;6.896;2022-07-23T08:48:30;13.95;;;8.65;;
72132;SDS011;60008;50.826;6.896;2022-07-23T08:51:00;13.90;;;8.20;;
72132;SDS011;60008;50.826;6.896;2022-07-23T08:53:27;16.07;;;9.30;;
72132;SDS011;60008;50.826;6.896;2022-07-23T08:55:59;13.65;;;8.10;;
72132;SDS011;60008;50.826;6.896;2022-07-23T08:58:28;14.27;;;8.80;;
72132;SDS011;60008;50.826;6.896;2022-07-23T09:00:55;14.18;;;9.00;;
72132;SDS011;60008;50.826;6.896;2022-07-23T09:03:24;15.27;;;9.10;;
72132;SDS011;60008;50.826;6.896;2022-07-23T09:05:52;14.57;;;9.73;;
72132;SDS011;60008;50.826;6.896;2022-07-23T09:08:22;21.57;;;14.57;;
72132;SDS011;60008;50.826;6.896;2022-07-23T09:10:52;14.75;;;9.52;;
72132;SDS011;60008;50.826;6.896;2022-07-23T09:24:12;12.87;;;9.03;;
72132;SDS011;60008;50.826;6.896;2022-07-23T09:26:43;16.35;;;9.55;;
72132;SDS011;60008;50.826;6.896;2022-07-23T09:29:17;12.65;;;9.50;;
72132;SDS011;60008;50.826;6.896;2022-07-23T09:31:54;15.25;;;9.63;;
72132;SDS011;60008;50.826;6.896;2022-07-23T09:36:51;15.33;;;9.23;;
72132;SDS011;60008;50.826;6.896;2022-07-23T09:39:37;14.93;;;9.73;;
72132;SDS011;60008;50.826;6.896;2022-07-23T09:42:23;11.02;;;8.40;;
72132;SDS011;60008;50.826;6.896;2022-07-23T09:44:54;11.27;;;8.90;;
72132;SDS011;60008;50.826;6.896;2022-07-23T09:47:24;15.35;;;9.30;;
72132;SDS011;60008;50.826;6.896;2022-07-23T09:50:02;13.95;;;10.32;;
72132;SDS011;60008;50.826;6.896;2022-07-23T09:52:33;12.15;;;8.95;;
72132;SDS011;60008;50.826;6.896;2022-07-23T09:55:09;13.97;;;9.53;;
72132;SDS011;60008;50.826;6.896;2022-07-23T09:57:36;11.38;;;8.93;;
72132;SDS011;60008;50.826;6.896;2022-07-23T10:00:07;12.88;;;7.75;;
72132;SDS011;60008;50.826;6.896;2022-07-23T10:02:38;14.70;;;9.63;;
72132;SDS011;60008;50.826;6.896;2022-07-23T10:05:06;13.07;;;7.35;;
72132;SDS011;60008;50.826;6.896;2022-07-23T10:07:35;19.98;;;7.88;;
72132;SDS011;60008;50.826;6.896;2022-07-23T10:10:04;11.17;;;6.87;;
72132;SDS011;60008;50.826;6.896;2022-07-23T10:12:32;10.90;;;8.00;;
72132;SDS011;60008;50.826;6.896;2022-07-23T10:14:59;15.57;;;8.55;;
72132;SDS011;60008;50.826;6.896;2022-07-23T10:17:29;14.13;;;9.07;;
72132;SDS011;60008;50.826;6.896;2022-07-23T10:19:56;13.40;;;9.38;;
72132;SDS011;60008;50.826;6.896;2022-07-23T10:22:24;11.48;;;8.45;;
72132;SDS011;60008;50.826;6.896;2022-07-23T10:33:12;13.45;;;6.95;;
72132;SDS011;60008;50.826;6.896;2022-07-23T10:36:15;12.93;;;7.43;;
72132;SDS011;60008;50.826;6.896;2022-07-23T10:41:13;10.10;;;7.22;;
72132;SDS011;60008;50.826;6.896;2022-07-23T10:43:40;11.43;;;6.80;;
72132;SDS011;60008;50.826;6.896;2022-07-23T10:46:23;8.93;;;5.88;;
72132;SDS011;60008;50.826;6.896;2022-07-23T10:49:24;12.32;;;6.47;;
72132;SDS011;60008;50.826;6.896;2022-07-23T10:54:42;13.20;;;6.65;;
72132;SDS011;60008;50.826;6.896;2022-07-23T10:57:10;11.25;;;6.32;;
72132;SDS011;60008;50.826;6.896;2022-07-23T11:02:33;10.40;;;7.20;;
72132;SDS011;60008;50.826;6.896;2022-07-23T11:05:03;11.18;;;7.70;;
72132;SDS011;60008;50.826;6.896;2022-07-23T11:07:35;10.30;;;7.22;;
72132;SDS011;60008;50.826;6.896;2022-07-23T11:10:03;9.27;;;5.85;;
72132;SDS011;60008;50.826;6.896;2022-07-23T11:17:36;8.73;;;5.83;;
72132;SDS011;60008;50.826;6.896;2022-07-23T11:25:10;8.18;;;4.45;;
72132;SDS011;60008;50.826;6.896;2022-07-23T11:27:39;10.18;;;4.50;;
72132;SDS011;60008;50.826;6.896;2022-07-23T11:30:07;5.93;;;4.18;;
72132;SDS011;60008;50.826;6.896;2022-07-23T11:32:37;5.40;;;4.00;;
72132;SDS011;60008;50.826;6.896;2022-07-23T11:35:18;7.22;;;3.58;;
72132;SDS011;60008;50.826;6.896;2022-07-23T11:37:47;6.57;;;3.67;;
72132;SDS011;60008;50.826;6.896;2022-07-23T11:40:17;5.45;;;3.50;;
72132;SDS011;60008;50.826;6.896;2022-07-23T11:42:53;5.97;;;4.20;;
72132;SDS011;60008;50.826;6.896;2022-07-23T11:45:32;6.50;;;4.47;;
72132;SDS011;60008;50.826;6.896;2022-07-23T11:48:01;7.23;;;5.10;;
72132;SDS011;60008;50.826;6.896;2022-07-23T11:50:30;8.75;;;4.50;;
72132;SDS011;60008;50.826;6.896;2022-07-23T11:52:57;6.70;;;4.05;;
72132;SDS011;60008;50.826;6.896;2022-07-23T11:55:24;7.90;;;4.00;;
72132;SDS011;60008;50.826;6.896;2022-07-23T11:57:52;7.63;;;4.70;;
72132;SDS011;60008;50.826;6.896;2022-07-23T12:00:20;6.57;;;4.00;;
72132;SDS011;60008;50.826;6.896;2022-07-23T12:02:53;5.63;;;3.80;;
72132;SDS011;60008;50.826;6.896;2022-07-23T12:05:33;8.77;;;4.25;;
72132;SDS011;60008;50.826;6.896;2022-07-23T12:08:05;7.85;;;3.75;;
72132;SDS011;60008;50.826;6.896;2022-07-23T12:10:38;5.53;;;3.60;;
72132;SDS011;60008;50.826;6.896;2022-07-23T12:13:12;5.30;;;3.55;;
72132;SDS011;60008;50.826;6.896;2022-07-23T12:15:45;8.63;;;4.77;;
72132;SDS011;60008;50.826;6.896;2022-07-23T12:18:24;7.00;;;3.90;;
72132;SDS011;60008;50.826;6.896;2022-07-23T12:20:52;9.25;;;4.78;;
72132;SDS011;60008;50.826;6.896;2022-07-23T12:23:22;6.30;;;4.20;;
72132;SDS011;60008;50.826;6.896;2022-07-23T12:25:50;7.82;;;4.35;;
72132;SDS011;60008;50.826;6.896;2022-07-23T12:28:29;7.30;;;4.38;;
72132;SDS011;60008;50.826;6.896;2022-07-23T12:30:59;8.33;;;5.10;;
72132;SDS011;60008;50.826;6.896;2022-07-23T12:33:28;7.03;;;4.68;;
72132;SDS011;60008;50.826;6.896;2022-07-23T12:36:00;7.13;;;4.93;;
72132;SDS011;60008;50.826;6.896;2022-07-23T12:38:43;10.50;;;5.20;;
72132;SDS011;60008;50.826;6.896;2022-07-23T12:41:13;6.50;;;4.25;;
72132;SDS011;60008;50.826;6.896;2022-07-23T12:43:41;13.93;;;7.60;;
72132;SDS011;60008;50.826;6.896;2022-07-23T12:51:23;8.73;;;4.70;;
72132;SDS011;60008;50.826;6.896;2022-07-23T12:56:26;7.00;;;4.43;;
72132;SDS011;60008;50.826;6.896;2022-07-23T12:58:56;7.63;;;4.33;;
72132;SDS011;60008;50.826;6.896;2022-07-23T13:01:25;7.28;;;4.35;;
72132;SDS011;60008;50.826;6.896;2022-07-23T13:04:03;9.30;;;4.95;;
72132;SDS011;60008;50.826;6.896;2022-07-23T13:09:06;8.02;;;4.70;;
72132;SDS011;60008;50.826;6.896;2022-07-23T13:11:34;8.33;;;5.03;;
72132;SDS011;60008;50.826;6.896;2022-07-23T13:14:01;8.25;;;5.32;;
72132;SDS011;60008;50.826;6.896;2022-07-23T13:16:29;8.88;;;4.78;;
72132;SDS011;60008;50.826;6.896;2022-07-23T13:18:57;7.68;;;5.22;;
72132;SDS011;60008;50.826;6.896;2022-07-23T13:21:25;11.57;;;5.70;;
72132;SDS011;60008;50.826;6.896;2022-07-23T13:23:52;8.13;;;4.77;;
72132;SDS011;60008;50.826;6.896;2022-07-23T13:26:19;7.03;;;4.40;;
72132;SDS011;60008;50.826;6.896;2022-07-23T13:28:48;7.22;;;3.95;;
72132;SDS011;60008;50.826;6.896;2022-07-23T13:31:14;8.73;;;4.70;;
72132;SDS011;60008;50.826;6.896;2022-07-23T13:33:41;11.13;;;4.53;;
72132;SDS011;60008;50.826;6.896;2022-07-23T13:36:13;7.03;;;4.43;;
72132;SDS011;60008;50.826;6.896;2022-07-23T13:38:40;8.20;;;4.38;;
72132;SDS011;60008;50.826;6.896;2022-07-23T13:41:07;8.48;;;4.47;;
72132;SDS011;60008;50.826;6.896;2022-07-23T13:43:37;6.85;;;4.10;;
72132;SDS011;60008;50.826;6.896;2022-07-23T13:46:04;6.47;;;4.20;;
72132;SDS011;60008;50.826;6.896;2022-07-23T13:48:31;6.80;;;4.40;;
72132;SDS011;60008;50.826;6.896;2022-07-23T13:50:58;10.05;;;4.00;;
72132;SDS011;60008;50.826;6.896;2022-07-23T13:53:26;8.82;;;4.50;;
72132;SDS011;60008;50.826;6.896;2022-07-23T13:55:52;7.50;;;4.20;;
72132;SDS011;60008;50.826;6.896;2022-07-23T13:58:21;8.68;;;4.80;;
72132;SDS011;60008;50.826;6.896;2022-07-23T14:00:51;8.10;;;4.20;;
72132;SDS011;60008;50.826;6.896;2022-07-23T14:03:20;6.07;;;3.90;;
72132;SDS011;60008;50.826;6.896;2022-07-23T14:05:50;8.40;;;4.40;;
72132;SDS011;60008;50.826;6.896;2022-07-23T14:08:17;6.78;;;4.05;;
72132;SDS011;60008;50.826;6.896;2022-07-23T14:10:47;7.20;;;4.07;;
72132;SDS011;60008;50.826;6.896;2022-07-23T14:13:14;6.80;;;3.80;;
72132;SDS011;60008;50.826;6.896;2022-07-23T14:15:42;6.13;;;4.00;;
72132;SDS011;60008;50.826;6.896;2022-07-23T14:18:08;8.20;;;4.43;;
72132;SDS011;60008;50.826;6.896;2022-07-23T14:20:35;6.15;;;3.90;;
72132;SDS011;60008;50.826;6.896;2022-07-23T14:23:04;6.72;;;4.05;;
72132;SDS011;60008;50.826;6.896;2022-07-23T14:25:31;8.50;;;3.57;;
72132;SDS011;60008;50.826;6.896;2022-07-23T14:27:59;7.47;;;3.80;;
72132;SDS011;60008;50.826;6.896;2022-07-23T14:30:25;8.23;;;3.47;;
72132;SDS011;60008;50.826;6.896;2022-07-23T14:32:59;5.78;;;3.60;;
72132;SDS011;60008;50.826;6.896;2022-07-23T14:35:26;7.03;;;3.33;;
72132;SDS011;60008;50.826;6.896;2022-07-23T14:37:52;10.97;;;7.37;;
72132;SDS011;60008;50.826;6.896;2022-07-23T14:40:20;8.75;;;4.45;;
72132;SDS011;60008;50.826;6.896;2022-07-23T14:42:48;7.22;;;3.70;;
72132;SDS011;60008;50.826;6.896;2022-07-23T14:45:15;8.07;;;4.20;;
72132;SDS011;60008;50.826;6.896;2022-07-23T14:47:44;6.72;;;3.80;;
72132;SDS011;60008;50.826;6.896;2022-07-23T14:50:12;6.77;;;3.50;;
72132;SDS011;60008;50.826;6.896;2022-07-23T14:52:40;6.82;;;3.60;;
72132;SDS011;60008;50.826;6.896;2022-07-23T14:55:06;8.32;;;3.60;;
72132;SDS011;60008;50.826;6.896;2022-07-23T14:57:33;7.22;;;3.53;;
72132;SDS011;60008;50.826;6.896;2022-07-23T15:00:00;8.63;;;3.50;;
72132;SDS011;60008;50.826;6.896;2022-07-23T15:02:27;9.57;;;4.40;;
72132;SDS011;60008;50.826;6.896;2022-07-23T15:04:54;6.15;;;3.38;;
72132;SDS011;60008;50.826;6.896;2022-07-23T15:07:21;5.20;;;3.33;;
72132;SDS011;60008;50.826;6.896;2022-07-23T15:09:52;5.50;;;3.25;;
72132;SDS011;60008;50.826;6.896;2022-07-23T15:12:19;5.30;;;3.22;;
72132;SDS011;60008;50.826;6.896;2022-07-23T15:14:48;5.10;;;3.20;;
72132;SDS011;60008;50.826;6.896;2022-07-23T15:17:14;45.40;;;4.75;;
72132;SDS011;60008;50.826;6.896;2022-07-23T15:19:41;10.75;;;3.50;;
72132;SDS011;60008;50.826;6.896;2022-07-23T15:22:07;9.02;;;3.92;;
72132;SDS011;60008;50.826;6.896;2022-07-23T15:24:37;5.93;;;3.33;;
72132;SDS011;60008;50.826;6.896;2022-07-23T15:27:04;8.37;;;3.30;;
72132;SDS011;60008;50.826;6.896;2022-07-23T15:29:31;7.32;;;3.30;;